sensor_id;sensor_type;location;lat;lon;timestamp;pressure;altitude;pressure_sealevel;temperature;humidity
42247;BME280;27913;42.722;23.268;2023-01-19T00:01:53;93786.41;;;13.15;50.33
42247;BME280;27913;42.722;23.268;2023-01-19T00:04:18;93756.16;;;12.93;50.57
42247;BME280;27913;42.722;23.268;2023-01-19T00:06:44;93811.44;;;13.24;50.47
42247;BME280;27913;42.722;23.268;2023-01-19T00:09:09;93768.88;;;12.97;50.55
42247;BME280;27913;42.722;23.268;2023-01-19T00:11:35;93834.13;;;13.37;50.35
42247;BME280;27913;42.722;23.268;2023-01-19T00:14:01;93820.13;;;13.25;50.11
42247;BME280;27913;42.722;23.268;2023-01-19T00:16:26;93824.03;;;13.34;50.48
42247;BME280;27913;42.722;23.268;2023-01-19T00:18:52;93826.75;;;13.39;51.05
42247;BME280;27913;42.722;23.268;2023-01-19T00:21:18;93819.34;;;13.24;51.24
42247;BME280;27913;42.722;23.268;2023-01-19T00:23:44;93839.63;;;13.36;51.27
42247;BME280;27913;42.722;23.268;2023-01-19T00:26:14;93819.81;;;13.21;51.36
42247;BME280;27913;42.722;23.268;2023-01-19T00:28:41;93832.22;;;13.21;51.41
42247;BME280;27913;42.722;23.268;2023-01-19T00:31:07;93823.47;;;13.20;51.08
42247;BME280;27913;42.722;23.268;2023-01-19T00:33:33;93854.13;;;13.33;50.82
42247;BME280;27913;42.722;23.268;2023-01-19T00:35:58;93820.38;;;13.23;50.33
42247;BME280;27913;42.722;23.268;2023-01-19T00:38:23;93827.84;;;13.26;50.35
42247;BME280;27913;42.722;23.268;2023-01-19T00:40:49;93856.63;;;13.40;50.54
42247;BME280;27913;42.722;23.268;2023-01-19T00:43:15;93822.88;;;13.30;50.43
42247;BME280;27913;42.722;23.268;2023-01-19T00:45:40;93838.16;;;13.28;50.50
42247;BME280;27913;42.722;23.268;2023-01-19T00:48:06;93784.28;;;13.00;50.53
42247;BME280;27913;42.722;23.268;2023-01-19T00:50:32;93847.22;;;13.32;50.02
42247;BME280;27913;42.722;23.268;2023-01-19T00:52:58;93839.66;;;13.24;50.18
42247;BME280;27913;42.722;23.268;2023-01-19T00:55:27;93866.50;;;13.33;50.29
42247;BME280;27913;42.722;23.268;2023-01-19T00:57:54;93840.22;;;13.26;50.21
42247;BME280;27913;42.722;23.268;2023-01-19T01:00:20;93863.53;;;13.29;50.01
42247;BME280;27913;42.722;23.268;2023-01-19T01:05:22;93683.06;;;12.41;49.45
42247;BME280;27913;42.722;23.268;2023-01-19T01:07:48;93605.75;;;11.75;49.01
42247;BME280;27913;42.722;23.268;2023-01-19T01:10:20;93613.16;;;11.90;48.87
42247;BME280;27913;42.722;23.268;2023-01-19T01:12:46;93811.78;;;13.04;49.08
42247;BME280;27913;42.722;23.268;2023-01-19T01:15:14;93860.50;;;13.37;49.14
42247;BME280;27913;42.722;23.268;2023-01-19T01:17:40;93775.56;;;12.87;49.33
42247;BME280;27913;42.722;23.268;2023-01-19T01:20:16;93851.81;;;13.37;48.85
42247;BME280;27913;42.722;23.268;2023-01-19T01:22:45;93824.66;;;13.12;49.02
42247;BME280;27913;42.722;23.268;2023-01-19T01:25:14;93854.56;;;13.42;48.60
42247;BME280;27913;42.722;23.268;2023-01-19T01:27:41;93809.50;;;13.08;48.42
42247;BME280;27913;42.722;23.268;2023-01-19T01:30:07;93796.78;;;12.92;48.79
42247;BME280;27913;42.722;23.268;2023-01-19T01:32:33;93803.63;;;13.05;47.98
42247;BME280;27913;42.722;23.268;2023-01-19T01:34:59;93812.34;;;13.18;47.15
42247;BME280;27913;42.722;23.268;2023-01-19T01:37:24;93854.66;;;13.47;47.29
42247;BME280;27913;42.722;23.268;2023-01-19T01:39:50;93877.97;;;13.50;47.78
42247;BME280;27913;42.722;23.268;2023-01-19T01:42:18;93849.06;;;13.32;47.36
42247;BME280;27913;42.722;23.268;2023-01-19T01:44:56;93803.75;;;13.11;47.33
42247;BME280;27913;42.722;23.268;2023-01-19T01:47:44;93831.50;;;13.25;47.16
42247;BME280;27913;42.722;23.268;2023-01-19T01:50:23;93842.75;;;13.21;46.82
42247;BME280;27913;42.722;23.268;2023-01-19T01:52:58;93868.41;;;13.49;47.21
42247;BME280;27913;42.722;23.268;2023-01-19T01:55:27;93857.44;;;13.16;47.18
42247;BME280;27913;42.722;23.268;2023-01-19T01:57:55;93775.34;;;12.89;46.51
42247;BME280;27913;42.722;23.268;2023-01-19T02:00:26;93756.97;;;12.94;46.89
42247;BME280;27913;42.722;23.268;2023-01-19T02:02:51;93765.13;;;12.80;47.60
42247;BME280;27913;42.722;23.268;2023-01-19T02:05:32;93790.78;;;13.09;46.90
42247;BME280;27913;42.722;23.268;2023-01-19T02:10:53;93844.00;;;13.54;46.70
42247;BME280;27913;42.722;23.268;2023-01-19T02:13:40;93717.91;;;12.55;46.49
42247;BME280;27913;42.722;23.268;2023-01-19T02:16:08;93760.88;;;13.03;46.11
42247;BME280;27913;42.722;23.268;2023-01-19T02:18:35;93796.16;;;13.26;46.08
42247;BME280;27913;42.722;23.268;2023-01-19T02:23:44;93837.53;;;13.62;45.38
42247;BME280;27913;42.722;23.268;2023-01-19T02:26:38;93824.06;;;13.63;45.51
42247;BME280;27913;42.722;23.268;2023-01-19T02:29:06;93836.50;;;13.63;45.67
42247;BME280;27913;42.722;23.268;2023-01-19T02:31:34;93827.63;;;13.69;45.22
42247;BME280;27913;42.722;23.268;2023-01-19T02:34:00;93763.78;;;13.31;44.83
42247;BME280;27913;42.722;23.268;2023-01-19T02:36:36;93769.78;;;13.14;44.86
42247;BME280;27913;42.722;23.268;2023-01-19T02:39:03;93673.25;;;12.77;44.52
42247;BME280;27913;42.722;23.268;2023-01-19T02:41:33;93793.25;;;13.40;43.97
42247;BME280;27913;42.722;23.268;2023-01-19T02:44:01;93664.75;;;12.87;44.32
42247;BME280;27913;42.722;23.268;2023-01-19T02:46:28;93828.19;;;13.71;44.96
42247;BME280;27913;42.722;23.268;2023-01-19T02:48:58;93813.63;;;13.69;44.49
42247;BME280;27913;42.722;23.268;2023-01-19T02:51:24;93701.09;;;12.97;44.62
42247;BME280;27913;42.722;23.268;2023-01-19T02:54:04;93736.78;;;13.29;43.75
42247;BME280;27913;42.722;23.268;2023-01-19T02:57:02;93697.44;;;12.98;43.80
42247;BME280;27913;42.722;23.268;2023-01-19T02:59:37;93783.47;;;13.52;43.77
42247;BME280;27913;42.722;23.268;2023-01-19T03:08:17;93776.78;;;13.50;44.47
42247;BME280;27913;42.722;23.268;2023-01-19T03:10:59;93817.06;;;13.69;43.96
42247;BME280;27913;42.722;23.268;2023-01-19T03:13:46;93782.94;;;13.68;44.08
42247;BME280;27913;42.722;23.268;2023-01-19T03:16:19;93563.47;;;12.59;43.71
42247;BME280;27913;42.722;23.268;2023-01-19T03:18:50;93801.78;;;13.71;43.96
42247;BME280;27913;42.722;23.268;2023-01-19T03:21:18;93798.81;;;13.68;43.99
42247;BME280;27913;42.722;23.268;2023-01-19T03:23:46;93742.66;;;13.31;43.97
42247;BME280;27913;42.722;23.268;2023-01-19T03:26:18;93610.03;;;12.53;44.37
42247;BME280;27913;42.722;23.268;2023-01-19T03:28:45;93635.59;;;12.53;44.47
42247;BME280;27913;42.722;23.268;2023-01-19T03:31:19;93733.00;;;13.25;43.77
42247;BME280;27913;42.722;23.268;2023-01-19T03:33:50;93648.03;;;13.11;43.30
42247;BME280;27913;42.722;23.268;2023-01-19T03:38:57;93758.53;;;13.48;43.78
42247;BME280;27913;42.722;23.268;2023-01-19T03:41:25;93715.00;;;13.22;43.46
42247;BME280;27913;42.722;23.268;2023-01-19T03:43:52;93735.63;;;13.37;43.51
42247;BME280;27913;42.722;23.268;2023-01-19T03:46:20;93744.81;;;13.34;43.21
42247;BME280;27913;42.722;23.268;2023-01-19T03:48:47;93783.03;;;13.73;43.76
42247;BME280;27913;42.722;23.268;2023-01-19T03:51:13;93781.94;;;13.69;43.96
42247;BME280;27913;42.722;23.268;2023-01-19T03:53:40;93796.41;;;13.66;44.02
42247;BME280;27913;42.722;23.268;2023-01-19T03:56:15;93596.78;;;12.36;44.05
42247;BME280;27913;42.722;23.268;2023-01-19T03:58:42;93807.22;;;13.64;43.94
42247;BME280;27913;42.722;23.268;2023-01-19T04:01:07;93787.44;;;13.67;43.18
42247;BME280;27913;42.722;23.268;2023-01-19T04:03:33;93797.31;;;13.72;43.13
42247;BME280;27913;42.722;23.268;2023-01-19T04:05:58;93788.34;;;13.73;43.12
42247;BME280;27913;42.722;23.268;2023-01-19T04:08:24;93796.00;;;13.74;42.78
42247;BME280;27913;42.722;23.268;2023-01-19T04:10:49;93800.28;;;13.75;42.87
42247;BME280;27913;42.722;23.268;2023-01-19T04:13:14;93774.31;;;13.72;42.64
42247;BME280;27913;42.722;23.268;2023-01-19T04:15:40;93789.94;;;13.74;42.71
42247;BME280;27913;42.722;23.268;2023-01-19T04:18:05;93739.63;;;13.39;42.66
42247;BME280;27913;42.722;23.268;2023-01-19T04:20:31;93624.13;;;12.88;42.26
42247;BME280;27913;42.722;23.268;2023-01-19T04:22:58;93698.59;;;13.78;41.65
42247;BME280;27913;42.722;23.268;2023-01-19T04:25:25;93721.00;;;13.46;41.74
42247;BME280;27913;42.722;23.268;2023-01-19T04:27:51;93650.66;;;13.11;41.68
42247;BME280;27913;42.722;23.268;2023-01-19T04:30:17;93688.13;;;13.25;41.58
42247;BME280;27913;42.722;23.268;2023-01-19T04:32:43;93729.50;;;13.48;41.39
42247;BME280;27913;42.722;23.268;2023-01-19T04:35:09;93768.94;;;13.67;41.12
42247;BME280;27913;42.722;23.268;2023-01-19T04:37:34;93737.22;;;13.38;40.89
42247;BME280;27913;42.722;23.268;2023-01-19T04:40:00;93700.84;;;13.40;40.95
42247;BME280;27913;42.722;23.268;2023-01-19T04:42:25;93597.22;;;12.45;41.18
42247;BME280;27913;42.722;23.268;2023-01-19T04:44:52;93832.75;;;13.88;40.70
42247;BME280;27913;42.722;23.268;2023-01-19T04:47:18;93806.31;;;13.88;40.61
42247;BME280;27913;42.722;23.268;2023-01-19T04:49:44;93711.59;;;13.21;40.44
42247;BME280;27913;42.722;23.268;2023-01-19T04:52:09;93695.91;;;13.02;40.70
42247;BME280;27913;42.722;23.268;2023-01-19T04:54:35;93819.84;;;13.92;39.87
42247;BME280;27913;42.722;23.268;2023-01-19T04:57:00;93844.66;;;13.91;40.51
42247;BME280;27913;42.722;23.268;2023-01-19T04:59:29;93808.75;;;13.77;40.08
42247;BME280;27913;42.722;23.268;2023-01-19T05:01:54;93864.97;;;14.02;39.79
42247;BME280;27913;42.722;23.268;2023-01-19T05:04:20;93873.69;;;14.03;40.25
42247;BME280;27913;42.722;23.268;2023-01-19T05:06:47;93810.78;;;13.58;40.61
42247;BME280;27913;42.722;23.268;2023-01-19T05:09:12;93874.66;;;13.96;40.74
42247;BME280;27913;42.722;23.268;2023-01-19T05:11:39;93731.72;;;12.98;40.40
42247;BME280;27913;42.722;23.268;2023-01-19T05:14:05;93895.44;;;13.93;40.91
42247;BME280;27913;42.722;23.268;2023-01-19T05:16:31;93836.06;;;13.54;41.62
42247;BME280;27913;42.722;23.268;2023-01-19T05:18:57;93657.75;;;12.40;41.41
42247;BME280;27913;42.722;23.268;2023-01-19T05:21:22;93793.19;;;13.11;41.63
42247;BME280;27913;42.722;23.268;2023-01-19T05:23:48;93887.09;;;13.84;41.42
42247;BME280;27913;42.722;23.268;2023-01-19T05:26:13;93831.66;;;13.48;41.46
42247;BME280;27913;42.722;23.268;2023-01-19T05:28:39;93908.22;;;13.84;41.31
42247;BME280;27913;42.722;23.268;2023-01-19T05:31:04;93901.13;;;13.84;41.19
42247;BME280;27913;42.722;23.268;2023-01-19T05:33:30;93786.84;;;13.24;41.06
42247;BME280;27913;42.722;23.268;2023-01-19T05:35:56;93827.69;;;13.45;40.93
42247;BME280;27913;42.722;23.268;2023-01-19T05:38:23;93698.66;;;12.66;40.94
42247;BME280;27913;42.722;23.268;2023-01-19T05:40:56;93707.69;;;12.71;40.68
42247;BME280;27913;42.722;23.268;2023-01-19T05:43:22;93788.69;;;13.35;40.75
42247;BME280;27913;42.722;23.268;2023-01-19T05:45:50;93900.97;;;13.91;40.43
42247;BME280;27913;42.722;23.268;2023-01-19T05:48:15;93876.22;;;13.68;40.28
42247;BME280;27913;42.722;23.268;2023-01-19T05:50:41;93869.69;;;13.59;40.02
42247;BME280;27913;42.722;23.268;2023-01-19T05:53:06;93867.63;;;13.61;40.37
42247;BME280;27913;42.722;23.268;2023-01-19T05:55:32;93910.25;;;13.94;40.77
42247;BME280;27913;42.722;23.268;2023-01-19T05:57:57;93870.75;;;13.58;40.70
42247;BME280;27913;42.722;23.268;2023-01-19T06:00:23;93762.56;;;13.10;40.81
42247;BME280;27913;42.722;23.268;2023-01-19T06:02:49;93756.88;;;12.89;40.36
42247;BME280;27913;42.722;23.268;2023-01-19T06:05:15;93866.94;;;13.53;40.34
42247;BME280;27913;42.722;23.268;2023-01-19T06:07:41;93883.91;;;13.70;40.10
42247;BME280;27913;42.722;23.268;2023-01-19T06:10:07;93733.94;;;12.77;40.01
42247;BME280;27913;42.722;23.268;2023-01-19T06:12:33;93826.56;;;13.29;40.32
42247;BME280;27913;42.722;23.268;2023-01-19T06:14:59;93826.53;;;13.41;40.65
42247;BME280;27913;42.722;23.268;2023-01-19T06:17:24;93924.41;;;13.87;40.94
42247;BME280;27913;42.722;23.268;2023-01-19T06:19:50;93864.75;;;13.62;40.43
42247;BME280;27913;42.722;23.268;2023-01-19T06:22:15;93836.50;;;13.39;40.89
42247;BME280;27913;42.722;23.268;2023-01-19T06:24:41;93831.25;;;13.27;41.03
42247;BME280;27913;42.722;23.268;2023-01-19T06:27:06;93848.91;;;13.50;41.01
42247;BME280;27913;42.722;23.268;2023-01-19T06:29:32;93862.75;;;13.82;43.02
42247;BME280;27913;42.722;23.268;2023-01-19T06:31:58;93895.31;;;13.99;40.53
42247;BME280;27913;42.722;23.268;2023-01-19T06:34:23;93916.44;;;13.99;40.73
42247;BME280;27913;42.722;23.268;2023-01-19T06:36:56;93897.94;;;13.99;40.79
42247;BME280;27913;42.722;23.268;2023-01-19T06:39:22;93847.41;;;13.67;40.70
42247;BME280;27913;42.722;23.268;2023-01-19T06:41:47;93711.81;;;12.78;40.70
42247;BME280;27913;42.722;23.268;2023-01-19T06:44:13;93922.31;;;14.01;40.68
42247;BME280;27913;42.722;23.268;2023-01-19T06:46:38;93897.53;;;13.91;40.51
42247;BME280;27913;42.722;23.268;2023-01-19T06:49:04;93702.53;;;12.64;41.77
42247;BME280;27913;42.722;23.268;2023-01-19T06:51:30;93852.72;;;13.55;42.07
42247;BME280;27913;42.722;23.268;2023-01-19T06:53:56;93850.66;;;13.33;42.06
42247;BME280;27913;42.722;23.268;2023-01-19T06:56:22;93930.81;;;13.92;41.93
42247;BME280;27913;42.722;23.268;2023-01-19T06:58:47;93929.00;;;13.92;41.52
42247;BME280;27913;42.722;23.268;2023-01-19T07:01:13;93908.66;;;13.93;41.50
42247;BME280;27913;42.722;23.268;2023-01-19T07:03:38;93927.75;;;13.95;41.65
42247;BME280;27913;42.722;23.268;2023-01-19T07:06:04;93866.00;;;13.72;41.52
42247;BME280;27913;42.722;23.268;2023-01-19T07:08:34;93733.47;;;12.80;41.79
42247;BME280;27913;42.722;23.268;2023-01-19T07:11:04;93818.59;;;13.53;41.81
42247;BME280;27913;42.722;23.268;2023-01-19T07:13:31;93904.28;;;13.98;41.85
42247;BME280;27913;42.722;23.268;2023-01-19T07:15:57;93905.88;;;13.99;41.11
42247;BME280;27913;42.722;23.268;2023-01-19T07:18:23;93912.66;;;14.07;40.40
42247;BME280;27913;42.722;23.268;2023-01-19T07:20:48;93833.97;;;13.68;39.85
42247;BME280;27913;42.722;23.268;2023-01-19T07:23:17;93866.94;;;13.95;39.04
42247;BME280;27913;42.722;23.268;2023-01-19T07:25:45;93826.47;;;13.77;39.29
42247;BME280;27913;42.722;23.268;2023-01-19T07:28:11;93910.38;;;14.28;39.67
42247;BME280;27913;42.722;23.268;2023-01-19T07:30:40;93914.72;;;14.34;39.04
42247;BME280;27913;42.722;23.268;2023-01-19T07:33:07;93870.47;;;14.00;39.20
42247;BME280;27913;42.722;23.268;2023-01-19T07:35:32;93831.81;;;14.11;39.33
42247;BME280;27913;42.722;23.268;2023-01-19T07:37:58;93915.03;;;14.38;39.21
42247;BME280;27913;42.722;23.268;2023-01-19T07:40:23;93857.50;;;13.99;39.66
42247;BME280;27913;42.722;23.268;2023-01-19T07:42:50;93921.38;;;14.37;40.11
42247;BME280;27913;42.722;23.268;2023-01-19T07:45:17;93839.53;;;13.84;39.20
42247;BME280;27913;42.722;23.268;2023-01-19T07:47:44;93840.03;;;13.98;38.61
42247;BME280;27913;42.722;23.268;2023-01-19T07:50:11;93870.88;;;14.21;38.34
42247;BME280;27913;42.722;23.268;2023-01-19T07:52:37;93899.34;;;14.48;37.68
42247;BME280;27913;42.722;23.268;2023-01-19T07:55:02;93700.16;;;13.33;37.55
42247;BME280;27913;42.722;23.268;2023-01-19T07:57:29;93915.72;;;14.63;37.90
42247;BME280;27913;42.722;23.268;2023-01-19T07:59:55;93913.16;;;14.68;37.60
42247;BME280;27913;42.722;23.268;2023-01-19T08:02:21;93818.44;;;14.18;37.55
42247;BME280;27913;42.722;23.268;2023-01-19T08:04:47;93904.28;;;14.74;37.78
42247;BME280;27913;42.722;23.268;2023-01-19T08:07:12;93920.44;;;14.78;37.58
42247;BME280;27913;42.722;23.268;2023-01-19T08:09:38;93916.78;;;14.79;37.69
42247;BME280;27913;42.722;23.268;2023-01-19T08:12:03;93888.59;;;14.84;36.73
42247;BME280;27913;42.722;23.268;2023-01-19T08:14:29;93914.31;;;14.89;37.37
42247;BME280;27913;42.722;23.268;2023-01-19T08:16:58;93843.53;;;14.33;37.10
42247;BME280;27913;42.722;23.268;2023-01-19T08:19:24;93788.94;;;14.09;37.05
42247;BME280;27913;42.722;23.268;2023-01-19T08:21:49;93878.44;;;14.64;37.20
42247;BME280;27913;42.722;23.268;2023-01-19T08:24:19;93882.28;;;14.73;36.98
42247;BME280;27913;42.722;23.268;2023-01-19T08:26:46;93878.59;;;14.92;35.91
42247;BME280;27913;42.722;23.268;2023-01-19T08:29:11;93733.91;;;13.89;35.75
42247;BME280;27913;42.722;23.268;2023-01-19T08:31:37;93886.16;;;14.83;35.58
42247;BME280;27913;42.722;23.268;2023-01-19T08:34:03;93933.31;;;15.20;35.58
42247;BME280;27913;42.722;23.268;2023-01-19T08:36:29;93886.25;;;14.88;35.99
42247;BME280;27913;42.722;23.268;2023-01-19T08:38:54;93928.44;;;14.95;35.91
42247;BME280;27913;42.722;23.268;2023-01-19T08:41:20;93901.91;;;14.90;35.91
42247;BME280;27913;42.722;23.268;2023-01-19T08:43:47;93904.69;;;15.00;36.43
42247;BME280;27913;42.722;23.268;2023-01-19T08:46:12;93859.84;;;14.59;35.60
42247;BME280;27913;42.722;23.268;2023-01-19T08:48:43;93787.69;;;14.29;35.60
42247;BME280;27913;42.722;23.268;2023-01-19T08:51:10;93913.50;;;15.06;35.96
42247;BME280;27913;42.722;23.268;2023-01-19T08:53:37;93863.38;;;14.82;35.75
42247;BME280;27913;42.722;23.268;2023-01-19T08:56:02;93893.13;;;15.06;35.21
42247;BME280;27913;42.722;23.268;2023-01-19T08:58:28;93875.22;;;15.14;35.45
42247;BME280;27913;42.722;23.268;2023-01-19T09:00:54;93849.50;;;14.92;35.49
42247;BME280;27913;42.722;23.268;2023-01-19T09:03:20;93940.59;;;15.30;36.11
42247;BME280;27913;42.722;23.268;2023-01-19T09:05:47;93874.97;;;15.15;35.55
42247;BME280;27913;42.722;23.268;2023-01-19T09:08:13;93709.13;;;14.07;35.79
42247;BME280;27913;42.722;23.268;2023-01-19T09:10:49;93916.31;;;15.56;35.52
42247;BME280;27913;42.722;23.268;2023-01-19T09:13:16;93759.38;;;14.64;34.97
42247;BME280;27913;42.722;23.268;2023-01-19T09:15:42;93870.94;;;15.30;34.92
42247;BME280;27913;42.722;23.268;2023-01-19T09:18:13;93844.13;;;15.04;35.20
42247;BME280;27913;42.722;23.268;2023-01-19T09:20:40;93830.72;;;15.11;35.16
42247;BME280;27913;42.722;23.268;2023-01-19T09:23:08;93923.47;;;15.55;35.24
42247;BME280;27913;42.722;23.268;2023-01-19T09:25:39;93902.69;;;15.69;35.11
42247;BME280;27913;42.722;23.268;2023-01-19T09:28:06;93855.38;;;15.16;35.17
42247;BME280;27913;42.722;23.268;2023-01-19T09:30:33;93722.78;;;14.39;35.18
42247;BME280;27913;42.722;23.268;2023-01-19T09:33:12;93855.31;;;15.11;35.12
42247;BME280;27913;42.722;23.268;2023-01-19T09:35:38;93894.50;;;15.49;35.05
42247;BME280;27913;42.722;23.268;2023-01-19T09:38:04;93878.34;;;15.28;35.03
42247;BME280;27913;42.722;23.268;2023-01-19T09:40:31;93823.56;;;15.11;35.22
42247;BME280;27913;42.722;23.268;2023-01-19T09:45:38;93925.16;;;15.84;35.10
42247;BME280;27913;42.722;23.268;2023-01-19T09:51:18;93696.09;;;14.40;35.08
42247;BME280;27913;42.722;23.268;2023-01-19T09:56:48;93821.19;;;15.32;34.97
42247;BME280;27913;42.722;23.268;2023-01-19T09:59:25;93896.38;;;15.70;35.13
42247;BME280;27913;42.722;23.268;2023-01-19T10:04:52;93849.81;;;15.80;34.36
42247;BME280;27913;42.722;23.268;2023-01-19T10:12:40;93918.78;;;16.02;34.80
42247;BME280;27913;42.722;23.268;2023-01-19T10:15:28;93887.72;;;15.80;35.67
42247;BME280;27913;42.722;23.268;2023-01-19T10:18:22;93924.59;;;16.04;35.16
42247;BME280;27913;42.722;23.268;2023-01-19T10:21:04;93862.16;;;15.69;35.45
42247;BME280;27913;42.722;23.268;2023-01-19T10:23:40;93916.34;;;16.01;35.74
42247;BME280;27913;42.722;23.268;2023-01-19T10:26:15;93834.13;;;15.51;35.67
42247;BME280;27913;42.722;23.268;2023-01-19T10:28:41;93758.22;;;15.17;35.43
42247;BME280;27913;42.722;23.268;2023-01-19T10:31:07;93823.97;;;15.65;34.75
42247;BME280;27913;42.722;23.268;2023-01-19T10:33:34;93802.72;;;15.37;34.90
42247;BME280;27913;42.722;23.268;2023-01-19T10:36:24;93729.38;;;14.76;35.34
42247;BME280;27913;42.722;23.268;2023-01-19T10:38:50;93847.78;;;15.87;34.37
42247;BME280;27913;42.722;23.268;2023-01-19T10:44:04;93854.88;;;15.59;34.99
42247;BME280;27913;42.722;23.268;2023-01-19T10:49:02;93817.59;;;15.43;34.06
42247;BME280;27913;42.722;23.268;2023-01-19T10:51:28;93879.91;;;15.68;34.61
42247;BME280;27913;42.722;23.268;2023-01-19T10:53:57;93882.28;;;15.92;34.54
42247;BME280;27913;42.722;23.268;2023-01-19T10:56:31;93832.81;;;15.53;34.39
42247;BME280;27913;42.722;23.268;2023-01-19T10:58:59;93888.78;;;15.79;34.82
42247;BME280;27913;42.722;23.268;2023-01-19T11:01:26;93889.38;;;15.87;34.46
42247;BME280;27913;42.722;23.268;2023-01-19T11:03:53;93893.03;;;15.80;34.65
42247;BME280;27913;42.722;23.268;2023-01-19T11:06:20;93811.03;;;15.46;34.94
42247;BME280;27913;42.722;23.268;2023-01-19T11:08:48;93830.47;;;15.34;34.84
42247;BME280;27913;42.722;23.268;2023-01-19T11:11:18;93771.97;;;15.14;35.19
42247;BME280;27913;42.722;23.268;2023-01-19T11:14:01;93838.84;;;15.26;34.90
42247;BME280;27913;42.722;23.268;2023-01-19T11:16:29;93872.41;;;15.60;35.17
42247;BME280;27913;42.722;23.268;2023-01-19T11:18:56;93869.81;;;15.65;35.45
42247;BME280;27913;42.722;23.268;2023-01-19T11:21:26;93826.81;;;15.36;35.17
42247;BME280;27913;42.722;23.268;2023-01-19T11:23:55;93844.16;;;15.49;35.49
42247;BME280;27913;42.722;23.268;2023-01-19T11:26:38;93798.13;;;15.32;35.10
42247;BME280;27913;42.722;23.268;2023-01-19T11:29:05;93835.00;;;15.56;35.36
42247;BME280;27913;42.722;23.268;2023-01-19T11:31:39;93868.38;;;15.80;35.25
42247;BME280;27913;42.722;23.268;2023-01-19T11:36:56;93884.34;;;15.85;34.63
42247;BME280;27913;42.722;23.268;2023-01-19T11:39:23;93775.31;;;15.26;34.67
42247;BME280;27913;42.722;23.268;2023-01-19T11:41:56;93778.19;;;15.25;35.06
42247;BME280;27913;42.722;23.268;2023-01-19T11:44:29;93854.88;;;15.59;35.38
42247;BME280;27913;42.722;23.268;2023-01-19T11:46:59;93843.34;;;15.48;35.42
42247;BME280;27913;42.722;23.268;2023-01-19T11:49:28;93821.19;;;15.54;35.25
42247;BME280;27913;42.722;23.268;2023-01-19T11:52:02;93833.63;;;15.54;34.75
42247;BME280;27913;42.722;23.268;2023-01-19T11:54:33;93853.84;;;15.82;34.22
42247;BME280;27913;42.722;23.268;2023-01-19T11:57:00;93718.22;;;14.91;34.53
42247;BME280;27913;42.722;23.268;2023-01-19T11:59:27;93781.41;;;15.27;34.55
42247;BME280;27913;42.722;23.268;2023-01-19T12:01:59;93626.53;;;14.62;34.64
42247;BME280;27913;42.722;23.268;2023-01-19T12:04:30;93899.66;;;16.00;34.33
42247;BME280;27913;42.722;23.268;2023-01-19T12:06:59;93817.84;;;15.64;34.00
42247;BME280;27913;42.722;23.268;2023-01-19T12:09:39;93889.34;;;16.04;33.57
42247;BME280;27913;42.722;23.268;2023-01-19T12:12:22;93858.31;;;16.04;33.75
42247;BME280;27913;42.722;23.268;2023-01-19T12:17:29;93722.78;;;15.18;33.34
42247;BME280;27913;42.722;23.268;2023-01-19T12:23:36;93844.09;;;15.88;34.21
42247;BME280;27913;42.722;23.268;2023-01-19T12:28:31;93894.91;;;16.02;33.98
42247;BME280;27913;42.722;23.268;2023-01-19T12:30:59;93741.97;;;15.30;33.52
42247;BME280;27913;42.722;23.268;2023-01-19T12:35:57;93791.66;;;15.68;33.19
42247;BME280;27913;42.722;23.268;2023-01-19T12:41:30;93838.66;;;15.78;33.81
42247;BME280;27913;42.722;23.268;2023-01-19T12:49:20;93832.88;;;16.03;33.31
42247;BME280;27913;42.722;23.268;2023-01-19T12:51:48;93885.66;;;16.05;33.54
42247;BME280;27913;42.722;23.268;2023-01-19T12:54:29;93865.81;;;16.08;33.55
42247;BME280;27913;42.722;23.268;2023-01-19T12:57:15;93820.84;;;15.73;33.56
42247;BME280;27913;42.722;23.268;2023-01-19T12:59:43;93882.19;;;16.04;33.46
42247;BME280;27913;42.722;23.268;2023-01-19T13:13:33;93892.66;;;15.94;34.04
42247;BME280;27913;42.722;23.268;2023-01-19T13:19:25;93855.78;;;15.92;34.09
42247;BME280;27913;42.722;23.268;2023-01-19T13:21:43;93883.31;;;15.86;34.12
42247;BME280;27913;42.722;23.268;2023-01-19T13:24:18;93719.72;;;14.87;33.96
42247;BME280;27913;42.722;23.268;2023-01-19T13:31:44;93859.13;;;15.82;33.61
42247;BME280;27913;42.722;23.268;2023-01-19T13:34:18;93762.13;;;15.31;33.97
42247;BME280;27913;42.722;23.268;2023-01-19T13:36:50;93838.59;;;15.95;33.80
42247;BME280;27913;42.722;23.268;2023-01-19T13:40:00;93840.75;;;15.98;33.94
42247;BME280;27913;42.722;23.268;2023-01-19T13:42:15;93809.28;;;15.79;33.54
42247;BME280;27913;42.722;23.268;2023-01-19T13:44:45;93620.78;;;14.65;33.36
42247;BME280;27913;42.722;23.268;2023-01-19T13:47:38;93793.84;;;15.76;33.34
42247;BME280;27913;42.722;23.268;2023-01-19T13:50:12;93796.09;;;15.85;33.51
42247;BME280;27913;42.722;23.268;2023-01-19T13:52:42;93811.91;;;16.02;33.34
42247;BME280;27913;42.722;23.268;2023-01-19T13:55:13;93703.41;;;15.40;33.25
42247;BME280;27913;42.722;23.268;2023-01-19T13:57:41;93712.22;;;15.45;33.13
42247;BME280;27913;42.722;23.268;2023-01-19T14:02:37;93777.16;;;15.76;33.14
42247;BME280;27913;42.722;23.268;2023-01-19T14:05:22;93855.66;;;16.27;33.46
42247;BME280;27913;42.722;23.268;2023-01-19T14:08:12;93847.03;;;16.14;33.61
42247;BME280;27913;42.722;23.268;2023-01-19T14:13:35;93663.13;;;14.88;33.62
42247;BME280;27913;42.722;23.268;2023-01-19T14:16:14;93725.38;;;15.13;33.61
42247;BME280;27913;42.722;23.268;2023-01-19T14:18:40;93706.63;;;14.97;33.61
42247;BME280;27913;42.722;23.268;2023-01-19T14:21:09;93759.41;;;15.26;33.94
42247;BME280;27913;42.722;23.268;2023-01-19T14:24:08;93867.09;;;15.82;33.93
42247;BME280;27913;42.722;23.268;2023-01-19T14:29:38;93826.06;;;15.40;34.08